Time,TemperatureF,DewpointF,PressureIn,WindDirection,WindDirectionDegrees,WindSpeedMPH,WindSpeedGustMPH,Humidity,HourlyPrecipIn,Conditions,Clouds,dailyrainin,SoftwareType,DateUTC
2013-04-03 00:08:00,39.4,17.0,30.32,SSE,150,2.0,7.0,41,0.00,,,0.00,weatherlink.com 1.10,2013-04-03 05:08:00,
2013-04-03 00:23:00,38.9,18.0,30.32,South,169,3.0,8.0,43,0.00,,,0.00,weatherlink.com 1.10,2013-04-03 05:23:00,
2013-04-03 00:38:00,38.0,19.0,30.32,ESE,118,7.0,12.0,46,0.00,,,0.00,weatherlink.com 1.10,2013-04-03 05:38:00,
2013-04-03 00:53:00,37.2,19.0,30.33,SE,136,6.0,9.0,49,0.00,,,0.00,weatherlink.com 1.10,2013-04-03 05:53:00,
2013-04-03 01:08:00,36.3,20.0,30.33,SE,128,7.0,11.0,52,0.00,,,0.00,weatherlink.com 1.10,2013-04-03 06:08:00,
2013-04-03 01:23:00,35.7,20.0,30.34,SSE,162,2.0,11.0,53,0.00,,,0.00,weatherlink.com 1.10,2013-04-03 06:23:00,
2013-04-03 01:38:00,35.2,20.0,30.34,SSE,163,4.0,9.0,54,0.00,,,0.00,weatherlink.com 1.10,2013-04-03 06:38:00,
2013-04-03 01:53:00,35.1,20.0,30.34,East,95,7.0,11.0,54,0.00,,,0.00,weatherlink.com 1.10,2013-04-03 06:53:00,
2013-04-03 02:08:00,34.7,20.0,30.33,SW,219,2.0,10.0,56,0.00,,,0.00,weatherlink.com 1.10,2013-04-03 07:08:00,
2013-04-03 02:23:00,34.1,20.0,30.33,East,82,7.0,13.0,57,0.00,,,0.00,weatherlink.com 1.10,2013-04-03 07:23:00,
2013-04-03 02:38:00,33.7,20.0,30.32,ESE,116,6.0,11.0,58,0.00,,,0.00,weatherlink.com 1.10,2013-04-03 07:38:00,
2013-04-03 02:53:00,33.3,20.0,30.32,South,169,5.0,11.0,59,0.00,,,0.00,weatherlink.com 1.10,2013-04-03 07:53:00,
2013-04-03 03:08:00,32.9,20.0,30.32,East,88,2.0,8.0,60,0.00,,,0.00,weatherlink.com 1.10,2013-04-03 08:08:00,
2013-04-03 03:23:00,32.7,20.0,30.33,ENE,67,2.0,9.0,61,0.00,,,0.00,weatherlink.com 1.10,2013-04-03 08:23:00,
2013-04-03 03:38:00,32.4,20.0,30.34,NNW,336,2.0,8.0,61,0.00,,,0.00,weatherlink.com 1.10,2013-04-03 08:38:00,
2013-04-03 03:53:00,32.1,20.0,30.34,ESE,122,3.0,9.0,61,0.00,,,0.00,weatherlink.com 1.10,2013-04-03 08:53:00,
2013-04-03 04:08:00,32.0,20.0,30.34,East,98,5.0,9.0,62,0.00,,,0.00,weatherlink.com 1.10,2013-04-03 09:08:00,
2013-04-03 04:23:00,31.6,20.0,30.34,North,358,0.0,8.0,62,0.00,,,0.00,weatherlink.com 1.10,2013-04-03 09:23:00,
2013-04-03 04:38:00,31.1,20.0,30.34,SE,130,1.0,7.0,63,0.00,,,0.00,weatherlink.com 1.10,2013-04-03 09:38:00,
2013-04-03 04:53:00,30.7,20.0,30.33,SE,146,1.0,7.0,64,0.00,,,0.00,weatherlink.com 1.10,2013-04-03 09:53:00,
2013-04-03 05:08:00,31.0,20.0,30.34,SSE,160,4.0,11.0,63,0.00,,,0.00,weatherlink.com 1.10,2013-04-03 10:08:00,
2013-04-03 05:23:00,30.6,19.0,30.34,SSW,208,1.0,8.0,63,0.00,,,0.00,weatherlink.com 1.10,2013-04-03 10:23:00,
2013-04-03 05:38:00,30.2,19.0,30.36,SSE,150,1.0,6.0,64,0.00,,,0.00,weatherlink.com 1.10,2013-04-03 10:38:00,
2013-04-03 05:54:00,30.1,19.0,30.35,SE,132,3.0,8.0,64,0.00,,,0.00,weatherlink.com 1.10,2013-04-03 10:54:00,
2013-04-03 06:09:00,30.0,19.0,30.35,SE,126,3.0,9.0,64,0.00,,,0.00,weatherlink.com 1.10,2013-04-03 11:09:00,
2013-04-03 06:24:00,30.0,19.0,30.36,ESE,102,11.0,11.0,63,0.00,,,0.00,weatherlink.com 1.10,2013-04-03 11:24:00,
2013-04-03 06:39:00,29.9,19.0,30.37,SSE,151,3.0,13.0,63,0.00,,,0.00,weatherlink.com 1.10,2013-04-03 11:39:00,
2013-04-03 06:54:00,29.8,18.0,30.39,SSE,147,1.0,7.0,63,0.00,,,0.00,weatherlink.com 1.10,2013-04-03 11:54:00,
2013-04-03 07:09:00,29.9,19.0,30.39,ESE,106,2.0,6.0,64,0.00,,,0.00,weatherlink.com 1.10,2013-04-03 12:09:00,
2013-04-03 07:24:00,30.4,19.0,30.40,ENE,69,3.0,7.0,64,0.00,,,0.00,weatherlink.com 1.10,2013-04-03 12:24:00,
2013-04-03 07:39:00,30.9,20.0,30.41,SSE,149,1.0,8.0,63,0.00,,,0.00,weatherlink.com 1.10,2013-04-03 12:39:00,
2013-04-03 07:54:00,31.6,20.0,30.41,ENE,60,3.0,9.0,62,0.00,,,0.00,weatherlink.com 1.10,2013-04-03 12:54:00,
2013-04-03 08:09:00,32.1,20.0,30.41,East,80,1.0,7.0,61,0.00,,,0.00,weatherlink.com 1.10,2013-04-03 13:09:00,
2013-04-03 08:24:00,32.7,20.0,30.41,ENE,67,5.0,11.0,59,0.00,,,0.00,weatherlink.com 1.10,2013-04-03 13:24:00,
2013-04-03 08:39:00,33.6,20.0,30.42,SE,146,2.0,6.0,58,0.00,,,0.00,weatherlink.com 1.10,2013-04-03 13:39:00,
2013-04-03 08:54:00,34.3,20.0,30.42,ENE,72,2.0,8.0,57,0.00,,,0.00,weatherlink.com 1.10,2013-04-03 13:54:00,
2013-04-03 09:09:00,34.7,21.0,30.42,South,181,3.0,10.0,58,0.00,,,0.00,weatherlink.com 1.10,2013-04-03 14:09:00,
2013-04-03 09:24:00,35.5,22.0,30.42,NW,324,2.0,9.0,58,0.00,,,0.00,weatherlink.com 1.10,2013-04-03 14:24:00,
2013-04-03 09:39:00,36.6,22.0,30.41,ESE,115,3.0,7.0,57,0.00,,,0.00,weatherlink.com 1.10,2013-04-03 14:39:00,
2013-04-03 09:54:00,37.3,23.0,30.42,SE,146,5.0,10.0,56,0.00,,,0.00,weatherlink.com 1.10,2013-04-03 14:54:00,
2013-04-03 10:09:00,38.1,22.0,30.41,South,180,3.0,8.0,52,0.00,,,0.00,weatherlink.com 1.10,2013-04-03 15:09:00,
2013-04-03 10:24:00,39.4,23.0,30.41,SSE,148,3.0,12.0,52,0.00,,,0.00,weatherlink.com 1.10,2013-04-03 15:24:00,
2013-04-03 10:39:00,40.6,23.0,30.41,South,173,1.0,8.0,50,0.00,,,0.00,weatherlink.com 1.10,2013-04-03 15:39:00,
2013-04-03 10:54:00,40.7,22.0,30.41,SSW,207,3.0,9.0,47,0.00,,,0.00,weatherlink.com 1.10,2013-04-03 15:54:00,
2013-04-03 11:09:00,41.8,22.0,30.41,SSE,151,4.0,11.0,45,0.00,,,0.00,weatherlink.com 1.10,2013-04-03 16:09:00,
2013-04-03 11:24:00,42.2,20.0,30.41,ESE,109,3.0,11.0,42,0.00,,,0.00,weatherlink.com 1.10,2013-04-03 16:24:00,
2013-04-03 11:39:00,43.5,22.0,30.41,SSE,152,5.0,10.0,43,0.00,,,0.00,weatherlink.com 1.10,2013-04-03 16:39:00,
2013-04-03 11:54:00,43.5,20.0,30.40,ENE,70,5.0,15.0,39,0.00,,,0.00,weatherlink.com 1.10,2013-04-03 16:54:00,
2013-04-03 12:10:00,44.5,20.0,30.39,SSW,210,4.0,17.0,37,0.00,,,0.00,weatherlink.com 1.10,2013-04-03 17:10:00,
2013-04-03 12:24:00,44.9,20.0,30.38,East,89,4.0,16.0,37,0.00,,,0.00,weatherlink.com 1.10,2013-04-03 17:24:00,
2013-04-03 12:39:00,45.8,20.0,30.37,SE,134,10.0,13.0,36,0.00,,,0.00,weatherlink.com 1.10,2013-04-03 17:39:00,
2013-04-03 12:54:00,46.0,20.0,30.36,South,175,8.0,16.0,36,0.00,,,0.00,weatherlink.com 1.10,2013-04-03 17:54:00,
2013-04-03 13:10:00,46.6,22.0,30.34,SE,125,2.0,16.0,38,0.00,,,0.00,weatherlink.com 1.10,2013-04-03 18:10:00,
2013-04-03 13:25:00,47.4,20.0,30.34,NE,49,3.0,15.0,34,0.00,,,0.00,weatherlink.com 1.10,2013-04-03 18:25:00,
2013-04-03 13:55:00,47.4,22.0,30.34,SSE,164,8.0,17.0,37,0.00,,,0.00,weatherlink.com 1.10,2013-04-03 18:55:00,
2013-04-03 14:10:00,48.2,22.0,30.34,SE,137,6.0,13.0,35,0.00,,,0.00,weatherlink.com 1.10,2013-04-03 19:10:00,
2013-04-03 14:25:00,48.2,22.0,30.33,SE,134,9.0,16.0,36,0.00,,,0.00,weatherlink.com 1.10,2013-04-03 19:25:00,
2013-04-03 14:40:00,49.1,22.0,30.33,SSW,212,4.0,17.0,35,0.00,,,0.00,weatherlink.com 1.10,2013-04-03 19:40:00,
2013-04-03 14:55:00,49.1,23.0,30.32,South,174,5.0,13.0,36,0.00,,,0.00,weatherlink.com 1.10,2013-04-03 19:55:00,
2013-04-03 15:25:00,49.6,23.0,30.32,SE,131,11.0,24.0,36,0.00,,,0.00,weatherlink.com 1.10,2013-04-03 20:25:00,
2013-04-03 15:40:00,50.1,25.0,30.32,NE,46,2.0,13.0,37,0.00,,,0.00,weatherlink.com 1.10,2013-04-03 20:40:00,
2013-04-03 15:55:00,50.5,25.0,30.32,SSE,152,7.0,11.0,37,0.00,,,0.00,weatherlink.com 1.10,2013-04-03 20:55:00,
2013-04-03 16:10:00,50.6,25.0,30.32,SSW,198,5.0,12.0,37,0.00,,,0.00,weatherlink.com 1.10,2013-04-03 21:10:00,
2013-04-03 16:25:00,50.6,24.0,30.32,SSW,206,8.0,17.0,36,0.00,,,0.00,weatherlink.com 1.10,2013-04-03 21:25:00,
2013-04-03 16:40:00,50.4,24.0,30.31,SE,129,4.0,14.0,36,0.00,,,0.00,weatherlink.com 1.10,2013-04-03 21:40:00,
2013-04-03 16:55:00,49.4,23.0,30.30,SSE,161,10.0,15.0,36,0.00,,,0.00,weatherlink.com 1.10,2013-04-03 21:55:00,
2013-04-03 17:10:00,49.5,24.0,30.30,SE,146,9.0,15.0,37,0.00,,,0.00,weatherlink.com 1.10,2013-04-03 22:10:00,
2013-04-03 17:25:00,48.6,24.0,30.29,WNW,291,3.0,11.0,39,0.00,,,0.00,weatherlink.com 1.10,2013-04-03 22:25:00,
2013-04-03 17:40:00,48.4,24.0,30.29,East,100,3.0,12.0,39,0.00,,,0.00,weatherlink.com 1.10,2013-04-03 22:40:00,
2013-04-03 17:55:00,48.3,25.0,30.29,ESE,113,4.0,9.0,40,0.00,,,0.00,weatherlink.com 1.10,2013-04-03 22:55:00,
2013-04-03 18:10:00,48.0,25.0,30.28,ENE,65,2.0,7.0,40,0.00,,,0.00,weatherlink.com 1.10,2013-04-03 23:10:00,
2013-04-03 18:25:00,47.5,25.0,30.28,East,82,3.0,10.0,41,0.00,,,0.00,weatherlink.com 1.10,2013-04-03 23:25:00,
2013-04-03 18:40:00,47.0,25.0,30.28,West,270,2.0,8.0,42,0.00,,,0.00,weatherlink.com 1.10,2013-04-03 23:40:00,
2013-04-03 18:55:00,46.5,25.0,30.29,East,99,3.0,8.0,43,0.00,,,0.00,weatherlink.com 1.10,2013-04-03 23:55:00,
2013-04-03 19:10:00,46.0,25.0,30.29,NE,46,4.0,7.0,44,0.00,,,0.00,weatherlink.com 1.10,2013-04-04 00:10:00,
2013-04-03 19:25:00,45.5,25.0,30.29,ENE,73,2.0,5.0,44,0.00,,,0.00,weatherlink.com 1.10,2013-04-04 00:25:00,
2013-04-03 19:40:00,45.0,25.0,30.28,ESE,122,1.0,6.0,46,0.00,,,0.00,weatherlink.com 1.10,2013-04-04 00:40:00,
2013-04-03 19:55:00,44.5,25.0,30.28,ENE,70,1.0,5.0,47,0.00,,,0.00,weatherlink.com 1.10,2013-04-04 00:55:00,
2013-04-03 20:10:00,44.1,25.0,30.28,ESE,118,0.0,4.0,48,0.00,,,0.00,weatherlink.com 1.10,2013-04-04 01:10:00,
2013-04-03 20:25:00,43.9,26.0,30.28,ENE,73,1.0,5.0,49,0.00,,,0.00,weatherlink.com 1.10,2013-04-04 01:25:00,
2013-04-03 20:40:00,43.7,25.0,30.27,WSW,257,1.0,7.0,49,0.00,,,0.00,weatherlink.com 1.10,2013-04-04 01:40:00,
2013-04-03 21:10:00,43.3,26.0,30.27,NE,50,2.0,7.0,51,0.00,,,0.00,weatherlink.com 1.10,2013-04-04 02:10:00,
2013-04-03 21:25:00,42.9,26.0,30.28,NNE,19,1.0,7.0,52,0.00,,,0.00,weatherlink.com 1.10,2013-04-04 02:25:00,
2013-04-03 21:40:00,42.7,26.0,30.29,SSE,155,2.0,6.0,52,0.00,,,0.00,weatherlink.com 1.10,2013-04-04 02:40:00,
2013-04-03 21:55:00,42.5,26.0,30.29,NNE,14,2.0,7.0,52,0.00,,,0.00,weatherlink.com 1.10,2013-04-04 02:55:00,
2013-04-03 22:10:00,42.2,26.0,30.29,WNW,293,1.0,4.0,53,0.00,,,0.00,weatherlink.com 1.10,2013-04-04 03:10:00,
2013-04-03 22:25:00,42.0,26.0,30.29,SSE,155,1.0,2.0,53,0.00,,,0.00,weatherlink.com 1.10,2013-04-04 03:25:00,
2013-04-03 22:40:00,41.6,26.0,30.29,SSE,160,0.0,2.0,54,0.00,,,0.00,weatherlink.com 1.10,2013-04-04 03:40:00,
2013-04-03 22:55:00,41.3,26.0,30.28,NNE,12,0.0,2.0,54,0.00,,,0.00,weatherlink.com 1.10,2013-04-04 03:55:00,
2013-04-03 23:10:00,41.1,26.0,30.28,NW,314,0.0,3.0,55,0.00,,,0.00,weatherlink.com 1.10,2013-04-04 04:10:00,
2013-04-03 23:25:00,41.1,26.0,30.27,NNE,23,0.0,4.0,55,0.00,,,0.00,weatherlink.com 1.10,2013-04-04 04:25:00,
2013-04-03 23:40:00,40.9,26.0,30.27,SSE,150,1.0,5.0,55,0.00,,,0.00,weatherlink.com 1.10,2013-04-04 04:40:00,
2013-04-03 23:55:00,40.8,26.0,30.27,SSE,160,3.0,5.0,55,0.00,,,0.00,weatherlink.com 1.10,2013-04-04 04:55:00,